Time;durP1;ratioP1;P1;durP2;ratioP2;P2;SDS_P1;SDS_P2;PMS_P1;PMS_P2;Temp;Humidity;BMP_temperature;BMP_pressure;BME280_temperature;BME280_humidity;BME280_pressure;Samples;Min_cycle;Max_cycle;Signal;HPM_P1;HPM_P2
2023/05/05 00:01:59;;;;;;;5.90;5.37;;;14.50;99.90;;;;;;5024496;28;20187;-40
2023/05/05 00:04:25;;;;;;;6.00;5.27;;;14.40;99.90;;;;;;5024821;28;20237;-41
2023/05/05 00:06:51;;;;;;;6.30;5.30;;;14.20;99.90;;;;;;5043476;28;20187;-41
2023/05/05 00:09:17;;;;;;;7.37;5.37;;;14.20;99.90;;;;;;5046166;28;20184;-41
2023/05/05 00:11:42;;;;;;;6.70;5.80;;;14.20;99.90;;;;;;5041249;28;20306;-41
2023/05/05 00:14:08;;;;;;;6.83;5.80;;;14.10;99.90;;;;;;5046250;28;20201;-40
2023/05/05 00:16:34;;;;;;;7.87;6.20;;;14.10;99.90;;;;;;5033427;28;20178;-41
2023/05/05 00:19:00;;;;;;;7.13;6.43;;;14.00;99.90;;;;;;5041515;28;20409;-41
2023/05/05 00:21:26;;;;;;;7.70;6.47;;;14.00;99.90;;;;;;5047508;28;20259;-39
2023/05/05 00:23:52;;;;;;;8.53;5.90;;;13.90;99.90;;;;;;5040048;28;20203;-41
2023/05/05 00:26:18;;;;;;;8.27;6.63;;;13.90;99.90;;;;;;5029508;28;20202;-39
2023/05/05 00:28:48;;;;;;;7.40;6.70;;;13.80;99.90;;;;;;5033080;28;20188;-37
2023/05/05 00:31:15;;;;;;;7.47;6.70;;;13.70;99.90;;;;;;5025275;28;20288;-37
2023/05/05 00:33:41;;;;;;;8.27;6.57;;;13.70;99.90;;;;;;5042775;28;20198;-39
2023/05/05 00:36:07;;;;;;;9.00;7.13;;;13.70;99.90;;;;;;5042508;28;20205;-40
2023/05/05 00:38:33;;;;;;;7.10;6.40;;;13.70;99.90;;;;;;5030075;28;20640;-40
2023/05/05 00:40:59;;;;;;;7.67;6.80;;;13.70;99.90;;;;;;5043647;28;20194;-37
2023/05/05 00:43:26;;;;;;;8.90;7.30;;;13.50;99.90;;;;;;5046189;28;20208;-41
2023/05/05 00:46:13;;;;;;;7.87;6.50;;;13.50;99.90;;;;;;5042031;28;20325;-39
2023/05/05 00:48:39;;;;;;;7.67;6.97;;;13.40;99.90;;;;;;5023107;28;20213;-39
2023/05/05 00:51:08;;;;;;;13.03;7.63;;;13.40;99.90;;;;;;5038984;28;20217;-41
2023/05/05 00:53:34;;;;;;;8.00;6.97;;;13.40;99.90;;;;;;5041079;28;20225;-40
2023/05/05 00:56:00;;;;;;;7.90;7.20;;;13.40;99.90;;;;;;5028876;28;20281;-40
2023/05/05 00:58:28;;;;;;;9.47;7.23;;;13.40;99.90;;;;;;5025137;28;20224;-41
2023/05/05 01:00:54;;;;;;;12.73;7.10;;;13.40;99.90;;;;;;5044249;28;20216;-39
2023/05/05 01:03:20;;;;;;;9.20;6.67;;;13.30;99.90;;;;;;5044353;28;20204;-39
2023/05/05 01:06:07;;;;;;;7.73;6.57;;;13.30;99.90;;;;;;5046518;28;20215;-39
2023/05/05 01:08:38;;;;;;;7.57;6.47;;;13.40;99.90;;;;;;5046857;28;20201;-38
2023/05/05 01:11:33;;;;;;;7.63;6.50;;;13.40;99.90;;;;;;5016323;28;20217;-41
2023/05/05 01:14:10;;;;;;;7.17;5.90;;;13.40;99.90;;;;;;5028504;28;20296;-40
2023/05/05 01:16:41;;;;;;;6.77;6.17;;;13.50;99.90;;;;;;5028722;28;20268;-41
2023/05/05 01:19:22;;;;;;;7.17;6.47;;;13.50;99.90;;;;;;5029480;28;20231;-40
2023/05/05 01:21:55;;;;;;;8.97;6.67;;;13.60;99.90;;;;;;5035510;28;20185;-39
2023/05/05 01:24:47;;;;;;;7.60;6.80;;;13.60;99.90;;;;;;5037951;28;20289;-38
2023/05/05 01:27:37;;;;;;;8.23;6.40;;;13.70;99.90;;;;;;5029665;28;20182;-41
2023/05/05 01:30:24;;;;;;;9.23;6.57;;;13.60;99.90;;;;;;5027951;28;20259;-40
2023/05/05 01:32:56;;;;;;;7.77;5.73;;;13.60;99.90;;;;;;5040112;28;20344;-38
2023/05/05 01:35:30;;;;;;;7.43;6.27;;;13.60;99.90;;;;;;5032390;28;20179;-39
2023/05/05 01:38:08;;;;;;;6.90;5.53;;;13.60;99.90;;;;;;5028235;28;20196;-41
2023/05/05 01:40:44;;;;;;;7.07;6.27;;;13.60;99.90;;;;;;5044595;28;20182;-39
2023/05/05 01:43:14;;;;;;;7.97;6.20;;;13.60;99.90;;;;;;5039901;28;20198;-41
2023/05/05 01:45:42;;;;;;;9.53;6.60;;;13.50;99.90;;;;;;5037846;28;20212;-39
2023/05/05 01:48:11;;;;;;;11.37;6.17;;;13.50;99.90;;;;;;5027089;28;20186;-37
2023/05/05 01:50:42;;;;;;;6.80;6.20;;;13.40;99.90;;;;;;5043831;28;20206;-39
2023/05/05 01:53:08;;;;;;;11.30;6.67;;;13.30;99.90;;;;;;5048941;28;20214;-38
2023/05/05 01:55:37;;;;;;;7.40;5.90;;;13.20;99.90;;;;;;5030736;28;20273;-38
2023/05/05 01:58:05;;;;;;;7.93;7.13;;;13.10;99.90;;;;;;5031124;28;20212;-38
2023/05/05 02:00:33;;;;;;;6.87;6.17;;;13.00;99.90;;;;;;5042135;28;20221;-37
2023/05/05 02:03:03;;;;;;;7.13;6.50;;;13.10;99.90;;;;;;5045065;28;20205;-40
2023/05/05 02:05:31;;;;;;;8.10;6.83;;;13.10;99.90;;;;;;5049461;28;20192;-41
2023/05/05 02:07:59;;;;;;;7.17;6.20;;;13.10;99.90;;;;;;5040126;28;20178;-38
2023/05/05 02:10:26;;;;;;;7.47;6.33;;;13.10;99.90;;;;;;5038650;28;20200;-40
2023/05/05 02:12:53;;;;;;;6.90;6.20;;;13.10;99.90;;;;;;5028065;28;20262;-38
2023/05/05 02:15:21;;;;;;;8.40;6.83;;;13.10;99.90;;;;;;5043436;28;20213;-37
2023/05/05 02:17:50;;;;;;;8.53;6.50;;;13.10;99.90;;;;;;5044525;28;20197;-38
2023/05/05 02:20:17;;;;;;;8.07;6.60;;;13.20;99.90;;;;;;5031850;28;20188;-38
2023/05/05 02:22:43;;;;;;;8.87;6.37;;;13.30;99.90;;;;;;5047304;28;20228;-39
2023/05/05 02:25:10;;;;;;;8.80;6.70;;;13.30;99.90;;;;;;5032785;28;20224;-39
2023/05/05 02:27:40;;;;;;;7.27;6.57;;;13.20;99.90;;;;;;5033106;28;20292;-37
2023/05/05 02:30:08;;;;;;;7.03;6.33;;;13.10;99.90;;;;;;5047669;28;20189;-38
2023/05/05 02:32:49;;;;;;;7.37;6.50;;;13.10;99.90;;;;;;5043946;28;20209;-38
2023/05/05 02:35:26;;;;;;;8.30;6.67;;;13.00;99.90;;;;;;5049653;28;20174;-39
2023/05/05 02:38:01;;;;;;;7.63;6.33;;;12.80;99.90;;;;;;5046322;28;20183;-38
2023/05/05 02:40:34;;;;;;;7.77;6.53;;;12.80;99.90;;;;;;5044324;28;20189;-40
2023/05/05 02:43:08;;;;;;;7.20;6.60;;;12.90;99.90;;;;;;5022668;28;20209;-39
2023/05/05 02:45:34;;;;;;;7.40;6.73;;;12.90;99.90;;;;;;5044811;28;20240;-41
2023/05/05 02:48:04;;;;;;;9.27;7.10;;;12.90;99.90;;;;;;5044587;28;20200;-39
2023/05/05 02:50:34;;;;;;;9.97;7.17;;;12.90;99.90;;;;;;5042232;28;20193;-38
2023/05/05 02:53:25;;;;;;;8.20;7.37;;;13.00;99.90;;;;;;5047890;28;20213;-38
2023/05/05 02:56:09;;;;;;;8.03;7.23;;;13.10;99.90;;;;;;5030976;28;20182;-40
2023/05/05 02:58:55;;;;;;;10.00;7.03;;;13.10;99.90;;;;;;5033777;28;20185;-39
2023/05/05 03:01:40;;;;;;;9.13;7.00;;;13.00;99.90;;;;;;5042994;28;20188;-41
2023/05/05 03:04:21;;;;;;;7.87;7.07;;;12.90;99.90;;;;;;5050901;28;20208;-39
2023/05/05 03:06:57;;;;;;;8.20;7.27;;;12.80;99.90;;;;;;5038385;28;20199;-39
2023/05/05 03:09:42;;;;;;;8.17;7.37;;;12.80;99.90;;;;;;5042813;28;20197;-39
2023/05/05 03:12:12;;;;;;;8.53;7.73;;;12.60;99.90;;;;;;5043347;28;20201;-39
2023/05/05 03:14:56;;;;;;;8.50;7.60;;;12.60;99.90;;;;;;5044602;28;20208;-38
2023/05/05 03:17:24;;;;;;;8.63;7.13;;;12.50;99.90;;;;;;5027210;28;20180;-39
2023/05/05 03:19:51;;;;;;;8.43;7.43;;;12.60;99.90;;;;;;5045451;28;20181;-40
2023/05/05 03:22:18;;;;;;;10.97;7.87;;;12.60;99.90;;;;;;5044501;28;20220;-38
2023/05/05 03:24:50;;;;;;;7.80;7.00;;;12.60;99.90;;;;;;5035872;28;20206;-39
2023/05/05 03:27:16;;;;;;;8.30;7.43;;;12.60;99.90;;;;;;5032834;28;20236;-40
2023/05/05 03:29:42;;;;;;;7.87;6.67;;;12.70;99.90;;;;;;5026793;28;20202;-39
2023/05/05 03:32:12;;;;;;;7.10;6.50;;;12.80;99.90;;;;;;5025594;28;20269;-40
2023/05/05 03:34:39;;;;;;;7.13;6.53;;;12.90;99.90;;;;;;5043579;28;20236;-40
2023/05/05 03:37:05;;;;;;;8.00;7.20;;;13.00;99.90;;;;;;5049271;28;20208;-38
2023/05/05 03:39:31;;;;;;;8.00;7.00;;;13.00;99.90;;;;;;5038277;28;20195;-39
2023/05/05 03:41:57;;;;;;;7.47;6.70;;;13.10;99.90;;;;;;5037847;28;20254;-40
2023/05/05 03:44:26;;;;;;;7.40;6.70;;;13.20;99.90;;;;;;5044244;28;20212;-40
2023/05/05 03:46:52;;;;;;;9.00;7.00;;;13.30;99.90;;;;;;5044818;28;20184;-38
2023/05/05 03:49:18;;;;;;;7.07;6.47;;;13.30;99.90;;;;;;5028140;28;20319;-38
2023/05/05 03:51:46;;;;;;;9.50;6.73;;;13.30;99.90;;;;;;5015331;28;20205;-38
2023/05/05 03:54:12;;;;;;;7.50;6.70;;;13.40;99.90;;;;;;5014084;28;20218;-40
2023/05/05 03:56:40;;;;;;;6.53;5.83;;;13.40;99.90;;;;;;5030139;28;20270;-38
2023/05/05 03:59:06;;;;;;;7.60;6.80;;;13.50;99.90;;;;;;5035764;28;20184;-40
2023/05/05 04:01:34;;;;;;;8.47;6.70;;;13.50;99.90;;;;;;5032097;28;20193;-42
2023/05/05 04:04:01;;;;;;;8.17;6.63;;;13.50;99.90;;;;;;5157802;22;20223;-42
2023/05/05 04:06:28;;;;;;;7.67;6.80;;;13.50;99.90;;;;;;5063805;28;20203;-42
2023/05/05 04:08:54;;;;;;;9.47;6.90;;;13.40;99.90;;;;;;5067291;28;20165;-42
2023/05/05 04:11:20;;;;;;;7.57;6.47;;;13.40;99.90;;;;;;5044485;28;20240;-40
2023/05/05 04:13:48;;;;;;;7.00;6.30;;;13.30;99.90;;;;;;5052318;28;20215;-40
2023/05/05 04:16:15;;;;;;;7.77;6.07;;;13.30;99.90;;;;;;5054138;28;20215;-41
2023/05/05 04:18:46;;;;;;;6.63;6.03;;;13.30;99.90;;;;;;5053224;28;20230;-41
2023/05/05 04:21:16;;;;;;;9.73;6.57;;;13.20;99.90;;;;;;5070069;28;20220;-42
2023/05/05 04:23:45;;;;;;;7.63;6.93;;;13.20;99.90;;;;;;5060849;28;20201;-42
2023/05/05 04:26:11;;;;;;;7.87;6.57;;;13.30;99.90;;;;;;5051425;28;20326;-42
2023/05/05 04:28:37;;;;;;;6.60;5.90;;;13.30;99.90;;;;;;5059854;28;20275;-41
2023/05/05 04:31:03;;;;;;;7.37;6.67;;;13.20;99.90;;;;;;5059897;28;20299;-42
2023/05/05 04:33:32;;;;;;;7.43;6.73;;;13.20;99.90;;;;;;5051538;28;20272;-42
2023/05/05 04:35:57;;;;;;;9.77;7.07;;;13.30;99.90;;;;;;5069563;28;20271;-41
2023/05/05 04:38:24;;;;;;;8.17;7.03;;;13.30;99.90;;;;;;5043981;28;20271;-42
2023/05/05 04:40:50;;;;;;;7.67;6.87;;;13.30;99.90;;;;;;5067234;28;20180;-42
2023/05/05 04:43:16;;;;;;;8.17;6.40;;;13.30;99.90;;;;;;5054391;28;20192;-42
2023/05/05 04:45:54;;;;;;;7.17;6.43;;;13.20;99.90;;;;;;5069852;28;20191;-42
2023/05/05 04:48:22;;;;;;;6.97;6.37;;;13.10;99.90;;;;;;5044680;28;20179;-40
2023/05/05 04:50:48;;;;;;;7.17;6.47;;;13.10;99.90;;;;;;5048314;28;20169;-39
2023/05/05 04:53:14;;;;;;;7.10;6.50;;;13.10;99.90;;;;;;5052799;28;20196;-40
2023/05/05 04:55:40;;;;;;;8.07;6.13;;;13.10;99.90;;;;;;5051950;28;20181;-40
2023/05/05 04:58:06;;;;;;;7.03;6.33;;;13.10;99.90;;;;;;5044948;28;20180;-41
2023/05/05 05:00:32;;;;;;;6.93;6.23;;;13.20;99.90;;;;;;5071279;28;20211;-41
2023/05/05 05:02:57;;;;;;;6.70;5.90;;;13.20;99.90;;;;;;5055856;28;20298;-41
2023/05/05 05:05:23;;;;;;;6.67;5.97;;;13.30;99.90;;;;;;5047204;28;20227;-42
2023/05/05 05:07:49;;;;;;;6.47;5.87;;;13.40;99.90;;;;;;5059819;28;20184;-42
2023/05/05 05:10:16;;;;;;;5.77;5.27;;;13.50;99.90;;;;;;5051310;28;20181;-41
2023/05/05 05:12:41;;;;;;;8.43;6.00;;;13.50;99.90;;;;;;5052168;28;20303;-42
2023/05/05 05:15:08;;;;;;;6.10;5.50;;;13.60;99.90;;;;;;5053039;28;20288;-42
2023/05/05 05:17:34;;;;;;;6.33;5.73;;;13.70;99.90;;;;;;5041404;28;20177;-42
2023/05/05 05:20:03;;;;;;;6.47;5.80;;;13.70;99.90;;;;;;5051432;28;20209;-42
2023/05/05 05:22:30;;;;;;;6.83;5.90;;;13.70;99.90;;;;;;5051991;28;20192;-42
2023/05/05 05:24:56;;;;;;;6.67;5.80;;;13.70;99.90;;;;;;5035698;28;20201;-42
2023/05/05 05:27:23;;;;;;;6.80;6.10;;;13.70;99.90;;;;;;5055350;28;20191;-42
2023/05/05 05:29:50;;;;;;;8.93;6.23;;;13.70;99.90;;;;;;5048133;28;20398;-42
2023/05/05 05:32:16;;;;;;;6.90;6.20;;;13.70;99.90;;;;;;5071266;28;20211;-42
2023/05/05 05:34:43;;;;;;;7.73;6.63;;;13.80;99.90;;;;;;5073838;28;20196;-42
2023/05/05 05:37:10;;;;;;;7.40;6.70;;;13.80;99.90;;;;;;5076072;28;20185;-43
2023/05/05 05:39:36;;;;;;;9.20;6.27;;;13.90;99.90;;;;;;5069458;28;20207;-40
2023/05/05 05:42:03;;;;;;;7.60;6.67;;;13.90;99.90;;;;;;5056209;28;20215;-42
2023/05/05 05:44:29;;;;;;;7.10;6.40;;;14.00;99.90;;;;;;5054276;28;20236;-42
2023/05/05 05:46:55;;;;;;;8.43;6.43;;;14.00;99.90;;;;;;5054548;28;20237;-41
2023/05/05 05:49:21;;;;;;;7.03;6.33;;;14.20;99.90;;;;;;5054930;28;20181;-41
2023/05/05 05:51:47;;;;;;;7.47;6.30;;;14.30;99.90;;;;;;5041432;28;20216;-41
2023/05/05 05:54:13;;;;;;;7.60;6.50;;;14.50;99.90;;;;;;5037488;28;20209;-42
2023/05/05 05:56:40;;;;;;;6.43;5.70;;;14.70;99.90;;;;;;5054352;28;20185;-42
2023/05/05 05:59:09;;;;;;;6.30;5.70;;;14.90;99.90;;;;;;5064275;28;20189;-42
2023/05/05 06:01:36;;;;;;;6.13;5.43;;;15.10;99.90;;;;;;5068513;28;20185;-42
2023/05/05 06:04:02;;;;;;;8.37;5.90;;;15.30;99.90;;;;;;5064077;28;20212;-41
2023/05/05 06:06:30;;;;;;;6.77;6.07;;;15.50;99.90;;;;;;5048790;28;20192;-42
2023/05/05 06:08:56;;;;;;;6.80;5.83;;;15.60;99.90;;;;;;5064936;28;20180;-42
2023/05/05 06:11:22;;;;;;;6.47;5.73;;;15.70;99.90;;;;;;5064304;28;20227;-43
2023/05/05 06:13:48;;;;;;;7.23;5.57;;;15.80;99.90;;;;;;5063944;28;20222;-39
2023/05/05 06:16:15;;;;;;;6.50;5.60;;;15.90;99.90;;;;;;5063469;28;20260;-41
2023/05/05 06:18:43;;;;;;;6.13;5.53;;;16.00;99.90;;;;;;5064186;28;20173;-42
2023/05/05 06:21:08;;;;;;;8.37;5.67;;;16.10;99.90;;;;;;5049964;28;20276;-42
2023/05/05 06:23:35;;;;;;;7.43;5.50;;;16.10;99.90;;;;;;5069605;28;20213;-42
2023/05/05 06:26:03;;;;;;;7.43;5.57;;;16.20;99.90;;;;;;5058944;28;20173;-42
2023/05/05 06:28:29;;;;;;;8.63;6.03;;;16.30;99.90;;;;;;5062442;28;20272;-42
2023/05/05 06:30:55;;;;;;;7.03;5.60;;;16.40;99.90;;;;;;5063260;28;20200;-39
2023/05/05 06:33:21;;;;;;;6.90;5.43;;;16.40;99.90;;;;;;5092089;28;20232;-41
2023/05/05 06:35:48;;;;;;;5.77;5.27;;;16.50;99.90;;;;;;5092815;28;20215;-42
2023/05/05 06:38:14;;;;;;;5.43;4.90;;;16.60;99.90;;;;;;5074694;28;20599;-42
2023/05/05 06:40:40;;;;;;;6.23;4.90;;;16.60;99.90;;;;;;5091333;28;20699;-43
2023/05/05 06:43:06;;;;;;;5.57;5.07;;;16.80;99.90;;;;;;5057117;28;20228;-42
2023/05/05 06:45:38;;;;;;;5.87;4.97;;;16.80;99.90;;;;;;5054580;28;20177;-43
2023/05/05 06:48:04;;;;;;;5.27;4.77;;;16.90;99.90;;;;;;5051538;28;20180;-42
2023/05/05 06:50:30;;;;;;;6.53;5.75;;;17.10;99.90;;;;;;5080147;28;20277;-42
2023/05/05 06:52:56;;;;;;;7.07;5.00;;;17.20;99.90;;;;;;5043015;28;20205;-42
2023/05/05 06:55:22;;;;;;;5.20;4.57;;;17.30;99.90;;;;;;5060033;28;20181;-43
2023/05/05 06:57:48;;;;;;;7.30;5.70;;;17.40;99.90;;;;;;5063148;28;20242;-42
2023/05/05 07:00:15;;;;;;;5.25;4.68;;;17.40;99.90;;;;;;5045685;28;20247;-42
2023/05/05 07:02:41;;;;;;;5.43;4.93;;;17.40;99.90;;;;;;5054190;28;20215;-43
2023/05/05 07:05:07;;;;;;;6.60;4.50;;;17.30;99.90;;;;;;5091905;28;20200;-42
2023/05/05 07:07:33;;;;;;;8.27;5.07;;;17.30;99.90;;;;;;5091056;28;20180;-42
2023/05/05 07:09:59;;;;;;;5.28;4.78;;;17.30;99.90;;;;;;5057307;28;20299;-42
2023/05/05 07:12:28;;;;;;;5.38;4.72;;;17.30;99.90;;;;;;5090902;28;20211;-43
2023/05/05 07:14:54;;;;;;;7.32;4.68;;;17.30;99.90;;;;;;5074080;28;20218;-42
2023/05/05 07:17:19;;;;;;;9.40;4.35;;;17.20;99.90;;;;;;5092096;28;20712;-42
2023/05/05 07:19:45;;;;;;;8.65;4.68;;;17.20;99.90;;;;;;5057208;28;20199;-42
2023/05/05 07:22:11;;;;;;;5.25;4.32;;;17.10;99.90;;;;;;5091758;28;20184;-42
2023/05/05 07:24:37;;;;;;;6.18;4.32;;;17.10;99.90;;;;;;5043984;28;20197;-43
2023/05/05 07:27:02;;;;;;;7.32;5.10;;;17.00;99.90;;;;;;5053764;28;20219;-43
2023/05/05 07:29:28;;;;;;;8.40;5.40;;;16.90;99.90;;;;;;5049366;28;20211;-43
2023/05/05 07:31:54;;;;;;;8.75;5.47;;;17.00;99.90;;;;;;5072771;28;20276;-43
2023/05/05 07:34:20;;;;;;;6.40;5.27;;;16.90;99.90;;;;;;5092129;28;20208;-43
2023/05/05 07:36:45;;;;;;;7.93;5.32;;;16.80;99.90;;;;;;5073739;28;20176;-43
2023/05/05 07:39:13;;;;;;;6.03;5.30;;;16.80;99.90;;;;;;5073679;28;20188;-42
2023/05/05 07:41:40;;;;;;;6.25;5.22;;;16.70;99.90;;;;;;5059485;28;20181;-43
2023/05/05 07:44:06;;;;;;;6.30;5.13;;;16.70;99.90;;;;;;5051641;28;20206;-43
2023/05/05 07:46:32;;;;;;;5.97;4.88;;;16.60;99.90;;;;;;5073581;28;20199;-43
2023/05/05 07:48:57;;;;;;;8.13;5.20;;;16.60;99.90;;;;;;5073436;28;20220;-44
2023/05/05 07:51:23;;;;;;;6.03;5.10;;;16.50;99.90;;;;;;5062412;28;20204;-43
2023/05/05 07:53:50;;;;;;;9.33;5.17;;;16.50;99.90;;;;;;5040202;28;20325;-43
2023/05/05 07:56:16;;;;;;;6.10;5.50;;;16.50;99.90;;;;;;5080141;28;20211;-44
2023/05/05 07:58:42;;;;;;;9.00;5.20;;;16.50;99.90;;;;;;5071978;28;20192;-43
2023/05/05 08:01:09;;;;;;;6.37;5.27;;;16.50;99.90;;;;;;5064133;28;20252;-43
2023/05/05 08:03:36;;;;;;;7.22;4.85;;;16.50;99.90;;;;;;5053954;28;20262;-42
2023/05/05 08:06:09;;;;;;;7.17;5.07;;;16.50;99.90;;;;;;5055357;28;20185;-43
2023/05/05 08:08:38;;;;;;;6.88;5.10;;;16.50;99.90;;;;;;5076392;28;20223;-43
2023/05/05 08:11:05;;;;;;;8.23;5.13;;;16.50;99.90;;;;;;5071294;28;20187;-41
2023/05/05 08:13:32;;;;;;;7.73;5.37;;;16.50;99.90;;;;;;5065037;28;20197;-43
2023/05/05 08:15:58;;;;;;;6.37;4.93;;;16.50;99.90;;;;;;5065023;28;20180;-41
2023/05/05 08:18:25;;;;;;;6.00;4.53;;;16.60;99.90;;;;;;5055799;28;20231;-41
2023/05/05 08:20:53;;;;;;;6.23;4.97;;;16.60;99.90;;;;;;5072498;28;20189;-41
2023/05/05 08:23:19;;;;;;;5.83;4.53;;;16.60;99.90;;;;;;5046559;28;20196;-41
2023/05/05 08:25:45;;;;;;;4.97;4.47;;;16.70;99.90;;;;;;5052230;28;20188;-42
2023/05/05 08:28:11;;;;;;;4.70;4.30;;;16.60;99.90;;;;;;5070647;28;20185;-42
2023/05/05 08:30:37;;;;;;;5.40;4.65;;;16.60;99.90;;;;;;5052453;28;20544;-42
2023/05/05 08:33:03;;;;;;;5.30;4.17;;;16.70;99.90;;;;;;5052708;28;20215;-41
2023/05/05 08:35:29;;;;;;;5.72;4.45;;;16.70;99.90;;;;;;5044578;28;20199;-41
2023/05/05 08:37:55;;;;;;;6.47;4.88;;;16.80;99.90;;;;;;5052932;28;20180;-42
2023/05/05 08:40:28;;;;;;;6.30;4.53;;;16.90;99.90;;;;;;5053721;28;20244;-42
2023/05/05 08:42:53;;;;;;;5.93;4.80;;;17.00;99.90;;;;;;5090791;28;20188;-41
2023/05/05 08:45:19;;;;;;;7.70;5.82;;;17.10;99.90;;;;;;5090733;28;20199;-41
2023/05/05 08:47:45;;;;;;;5.90;5.00;;;17.10;99.90;;;;;;5055453;28;20256;-42
2023/05/05 08:50:12;;;;;;;6.82;4.95;;;17.10;99.90;;;;;;5072062;28;20234;-44
2023/05/05 08:52:42;;;;;;;6.10;5.50;;;17.20;99.90;;;;;;5067596;28;20216;-43
2023/05/05 08:55:48;;;;;;;8.10;4.63;;;17.30;99.90;;;;;;5055037;28;20209;-43
2023/05/05 08:58:16;;;;;;;6.60;4.88;;;17.30;99.90;;;;;;5029540;28;20227;-42
2023/05/05 09:00:44;;;;;;;7.45;5.50;;;17.50;99.90;;;;;;5069471;28;20227;-44
2023/05/05 09:03:11;;;;;;;5.57;5.00;;;17.60;99.90;;;;;;5071199;28;20208;-43
2023/05/05 09:05:37;;;;;;;5.60;4.55;;;17.80;99.90;;;;;;5074339;28;20177;-44
2023/05/05 09:08:08;;;;;;;5.55;4.40;;;17.90;99.90;;;;;;5056409;28;20184;-43
2023/05/05 09:10:51;;;;;;;5.88;4.00;;;18.10;99.90;;;;;;5074480;28;20270;-43
2023/05/05 09:13:18;;;;;;;5.28;3.85;;;18.30;99.90;;;;;;5093839;28;20203;-44
2023/05/05 09:15:44;;;;;;;5.60;4.10;;;18.50;99.90;;;;;;5094536;28;20172;-44
2023/05/05 09:18:12;;;;;;;4.78;3.90;;;18.80;99.90;;;;;;5084671;28;20191;-43
2023/05/05 09:20:39;;;;;;;5.25;3.72;;;19.00;99.90;;;;;;5055976;28;20177;-43
2023/05/05 09:23:12;;;;;;;8.40;3.88;;;19.20;99.90;;;;;;5055984;28;20227;-42
2023/05/05 09:25:39;;;;;;;3.70;3.28;;;19.50;99.90;;;;;;5056068;28;20196;-44
2023/05/05 09:28:12;;;;;;;5.05;3.40;;;19.70;99.90;;;;;;5071630;28;20192;-43
2023/05/05 09:30:44;;;;;;;5.35;3.70;;;20.00;99.90;;;;;;5059215;28;20189;-43
2023/05/05 09:33:13;;;;;;;5.45;3.65;;;20.10;99.90;;;;;;5082221;28;20208;-43
2023/05/05 09:35:54;;;;;;;3.72;3.00;;;20.10;99.90;;;;;;5043904;28;20203;-44
2023/05/05 09:38:22;;;;;;;3.10;2.90;;;20.20;99.90;;;;;;5070991;28;20226;-43
2023/05/05 09:40:50;;;;;;;3.78;3.47;;;20.30;99.90;;;;;;5061138;28;20187;-44
2023/05/05 09:43:18;;;;;;;5.45;2.97;;;20.30;99.90;;;;;;5072219;28;20220;-42
2023/05/05 09:45:45;;;;;;;3.03;2.75;;;20.30;99.90;;;;;;5038102;28;20181;-41
2023/05/05 09:48:29;;;;;;;5.10;3.53;;;20.50;99.90;;;;;;5071868;28;20207;-43
2023/05/05 09:50:56;;;;;;;3.85;2.95;;;20.40;99.90;;;;;;5059665;28;20216;-43
2023/05/05 09:53:23;;;;;;;2.78;2.58;;;20.40;99.90;;;;;;5063868;28;20207;-43
2023/05/05 09:56:00;;;;;;;2.80;2.30;;;20.30;99.90;;;;;;5055650;28;20184;-43
2023/05/05 09:58:28;;;;;;;3.85;2.40;;;20.20;99.90;;;;;;5075325;28;20184;-43
2023/05/05 10:00:55;;;;;;;4.18;2.60;;;20.10;99.90;;;;;;5093551;28;20212;-42
2023/05/05 10:03:22;;;;;;;2.50;2.17;;;20.00;99.90;;;;;;5073783;28;20232;-39
2023/05/05 10:05:51;;;;;;;4.00;2.50;;;20.00;99.90;;;;;;5053229;28;20188;-43
2023/05/05 10:08:38;;;;;;;4.82;2.50;;;20.00;99.90;;;;;;5055795;28;20187;-43
2023/05/05 10:11:05;;;;;;;3.35;2.20;;;19.90;99.90;;;;;;5075185;28;20275;-43
2023/05/05 10:13:35;;;;;;;2.72;2.25;;;19.90;99.90;;;;;;5073266;28;20240;-43
2023/05/05 10:16:03;;;;;;;2.20;1.95;;;19.90;99.90;;;;;;5088873;28;20181;-44
2023/05/05 10:18:32;;;;;;;3.17;2.30;;;19.90;99.90;;;;;;5042976;28;20174;-44
2023/05/05 10:21:02;;;;;;;3.05;2.30;;;19.90;99.90;;;;;;5064594;28;20319;-43
2023/05/05 10:23:33;;;;;;;3.53;2.17;;;19.90;99.90;;;;;;5041993;28;20288;-43
2023/05/05 10:26:05;;;;;;;2.17;1.92;;;19.90;99.90;;;;;;5076409;28;20227;-43
2023/05/05 10:28:54;;;;;;;3.80;2.20;;;19.80;99.90;;;;;;5046731;28;20242;-42
2023/05/05 10:31:22;;;;;;;3.95;3.00;;;19.90;99.90;;;;;;5052740;28;20225;-42
2023/05/05 10:34:38;;;;;;;3.08;2.40;;;20.00;99.90;;;;;;5062245;28;20203;-40
2023/05/05 10:37:07;;;;;;;2.90;2.38;;;20.00;99.90;;;;;;5070000;28;20188;-40
2023/05/05 10:39:37;;;;;;;3.92;2.58;;;20.10;99.90;;;;;;5074042;28;20226;-45
2023/05/05 10:42:04;;;;;;;4.10;2.47;;;20.00;99.90;;;;;;5053572;28;20215;-43
2023/05/05 10:44:33;;;;;;;3.53;2.72;;;20.10;99.90;;;;;;5072837;28;20205;-41
2023/05/05 10:47:00;;;;;;;2.30;2.10;;;20.10;99.90;;;;;;5067695;28;20180;-42
2023/05/05 10:49:45;;;;;;;2.60;2.40;;;20.30;99.90;;;;;;5057517;28;20267;-43
2023/05/05 10:52:45;;;;;;;3.00;2.75;;;20.50;99.90;;;;;;5089046;28;20252;-43
2023/05/05 10:55:16;;;;;;;3.10;2.40;;;20.70;99.90;;;;;;5055043;28;20177;-43
2023/05/05 10:57:45;;;;;;;3.80;2.75;;;20.80;99.90;;;;;;5071627;28;20190;-43
2023/05/05 11:00:37;;;;;;;3.55;2.38;;;21.00;99.90;;;;;;5052928;28;20223;-43
2023/05/05 11:03:17;;;;;;;3.28;2.50;;;21.10;99.90;;;;;;5049405;28;20213;-42
2023/05/05 11:06:11;;;;;;;3.15;2.67;;;21.30;99.90;;;;;;5059863;28;20188;-42
2023/05/05 11:09:00;;;;;;;3.40;2.05;;;21.40;99.90;;;;;;5056199;28;20192;-42
2023/05/05 11:12:02;;;;;;;3.40;2.08;;;21.60;99.90;;;;;;5063301;28;20222;-43
2023/05/05 11:14:28;;;;;;;3.58;2.65;;;21.60;99.90;;;;;;5084883;28;20196;-43
2023/05/05 11:16:54;;;;;;;4.22;2.13;;;21.80;99.90;;;;;;5052285;28;20181;-43
2023/05/05 11:19:42;;;;;;;2.20;2.00;;;21.90;99.90;;;;;;5074076;28;20177;-42
2023/05/05 11:22:09;;;;;;;3.42;2.05;;;22.10;99.90;;;;;;5069274;28;20191;-41
2023/05/05 11:24:35;;;;;;;3.22;2.17;;;22.20;99.90;;;;;;5061056;28;20205;-43
2023/05/05 11:27:02;;;;;;;4.35;2.22;;;22.40;99.90;;;;;;5061388;28;20200;-42
2023/05/05 11:30:03;;;;;;;2.30;2.00;;;22.50;99.90;;;;;;5073431;28;20230;-41
2023/05/05 11:32:30;;;;;;;2.50;2.20;;;22.30;99.90;;;;;;5034018;28;20212;-42
2023/05/05 11:34:57;;;;;;;2.70;2.00;;;22.40;99.90;;;;;;5068769;28;20189;-42
2023/05/05 11:37:23;;;;;;;4.35;2.20;;;22.50;99.90;;;;;;5057074;28;20172;-42
2023/05/05 11:40:09;;;;;;;2.72;2.08;;;22.30;99.90;;;;;;5055201;28;20272;-42
2023/05/05 11:42:35;;;;;;;2.25;2.03;;;22.40;99.90;;;;;;5072648;28;20180;-42
2023/05/05 11:45:17;;;;;;;1.80;1.70;;;22.20;99.90;;;;;;5073314;28;20694;-42
2023/05/05 11:47:43;;;;;;;2.55;2.08;;;22.30;99.90;;;;;;5072994;28;20222;-42
2023/05/05 11:50:20;;;;;;;2.67;2.10;;;22.40;99.90;;;;;;5057240;28;20185;-42
2023/05/05 11:52:46;;;;;;;4.32;2.13;;;22.40;99.90;;;;;;5070599;28;20200;-42
2023/05/05 11:55:19;;;;;;;2.13;1.70;;;22.30;99.90;;;;;;5070262;28;20262;-42
2023/05/05 11:57:45;;;;;;;2.63;1.88;;;22.40;99.90;;;;;;5040854;28;20575;-41
2023/05/05 12:00:12;;;;;;;2.65;1.83;;;22.50;99.90;;;;;;5052219;28;20270;-42
2023/05/05 12:02:37;;;;;;;2.33;2.10;;;22.50;99.90;;;;;;5047152;28;20205;-42
2023/05/05 12:05:04;;;;;;;2.17;1.95;;;22.60;99.90;;;;;;5074867;28;20197;-41
2023/05/05 12:07:32;;;;;;;2.78;2.08;;;22.60;99.90;;;;;;5054637;28;20192;-42
2023/05/05 12:10:00;;;;;;;2.10;1.90;;;22.60;99.90;;;;;;5072562;28;20227;-42
2023/05/05 12:12:39;;;;;;;2.65;1.92;;;22.70;99.90;;;;;;5054395;28;20280;-42
2023/05/05 12:15:06;;;;;;;2.08;1.80;;;22.80;99.90;;;;;;5071180;28;20177;-42
2023/05/05 12:17:37;;;;;;;1.85;1.75;;;22.90;99.90;;;;;;5072302;28;20230;-41
2023/05/05 12:20:04;;;;;;;2.25;1.80;;;22.90;99.90;;;;;;5054255;28;20177;-42
2023/05/05 12:22:30;;;;;;;2.10;1.90;;;22.90;99.90;;;;;;5045686;28;20184;-42
2023/05/05 12:24:57;;;;;;;2.92;1.83;;;22.90;99.90;;;;;;5069096;28;20217;-42
2023/05/05 12:27:25;;;;;;;3.78;1.80;;;22.90;99.90;;;;;;5058602;28;20196;-42
2023/05/05 12:29:53;;;;;;;2.45;1.80;;;22.80;99.90;;;;;;5059254;28;20177;-42
2023/05/05 12:32:24;;;;;;;2.50;1.90;;;22.70;99.90;;;;;;5058231;28;20211;-44
2023/05/05 12:34:54;;;;;;;3.63;1.80;;;22.40;99.90;;;;;;5061571;28;20188;-44
2023/05/05 12:37:21;;;;;;;2.60;2.00;;;22.20;99.90;;;;;;5062112;28;20183;-43
2023/05/05 12:39:48;;;;;;;2.03;1.90;;;22.20;99.90;;;;;;5073679;28;20180;-44
2023/05/05 12:42:15;;;;;;;3.85;2.30;;;22.30;99.90;;;;;;5060384;28;20233;-42
2023/05/05 12:44:43;;;;;;;2.30;1.85;;;22.10;99.90;;;;;;5051797;28;20239;-42
2023/05/05 12:47:13;;;;;;;3.63;2.05;;;22.00;99.90;;;;;;5052660;28;20205;-42
2023/05/05 12:49:50;;;;;;;2.40;2.10;;;22.00;99.90;;;;;;5086626;28;20185;-42
2023/05/05 12:52:16;;;;;;;2.75;2.00;;;21.90;99.90;;;;;;5072173;28;20196;-42
2023/05/05 12:54:56;;;;;;;2.17;1.90;;;22.10;99.90;;;;;;5052402;28;20468;-42
2023/05/05 12:57:22;;;;;;;2.38;2.03;;;22.30;99.90;;;;;;5045137;28;20173;-42
2023/05/05 12:59:48;;;;;;;2.70;2.03;;;22.40;99.90;;;;;;5047937;28;20183;-42